Time;durP1;ratioP1;P1;durP2;ratioP2;P2;SDS_P1;SDS_P2;PMS_P1;PMS_P2;Temp;Humidity;BMP_temperature;BMP_pressure;BME280_temperature;BME280_humidity;BME280_pressure;Samples;Min_cycle;Max_cycle;Signal;HPM_P1;HPM_P2
2022/03/25 00:01:04;;;;;;;16.38;8.77;;;;;;;1.36;100.00;99670.00;5130493;28;20089;-70
2022/03/25 00:03:31;;;;;;;14.40;8.02;;;;;;;1.32;100.00;99681.69;5130521;27;20047;-70
2022/03/25 00:05:58;;;;;;;12.02;7.50;;;;;;;1.21;100.00;99688.34;5129754;27;20051;-69
2022/03/25 00:08:26;;;;;;;23.83;8.88;;;;;;;1.16;100.00;99711.59;5130570;27;20081;-69
2022/03/25 00:10:52;;;;;;;16.42;8.43;;;;;;;1.11;100.00;99714.38;5130225;28;20459;-69
2022/03/25 00:13:19;;;;;;;13.82;8.00;;;;;;;1.07;100.00;99723.34;5130309;27;20054;-70
2022/03/25 00:15:45;;;;;;;15.85;8.40;;;;;;;1.05;100.00;99747.13;5130077;27;20148;-70
2022/03/25 00:18:12;;;;;;;13.93;7.88;;;;;;;1.01;100.00;99759.59;5130166;27;20058;-69
2022/03/25 00:20:38;;;;;;;14.70;8.07;;;;;;;0.99;100.00;99770.66;5129957;27;20051;-70
2022/03/25 00:23:05;;;;;;;18.52;9.40;;;;;;;0.94;100.00;99774.22;5130303;28;20082;-70
2022/03/25 00:25:32;;;;;;;17.65;7.95;;;;;;;0.89;100.00;99784.28;5130454;27;20062;-70
2022/03/25 00:27:58;;;;;;;14.80;7.32;;;;;;;0.88;100.00;99810.47;5130309;28;20116;-70
2022/03/25 00:30:24;;;;;;;13.38;8.13;;;;;;;0.85;100.00;99824.53;5130406;27;20082;-70
2022/03/25 00:32:51;;;;;;;16.00;8.63;;;;;;;0.88;100.00;99842.06;5131211;27;20561;-70
2022/03/25 00:35:17;;;;;;;12.88;8.48;;;;;;;0.84;100.00;99851.81;5133770;27;20090;-70
2022/03/25 00:37:44;;;;;;;14.63;8.52;;;;;;;0.79;100.00;99844.56;5133634;27;20499;-70
2022/03/25 00:40:11;;;;;;;13.52;7.93;;;;;;;0.78;100.00;99853.75;5133441;27;20085;-70
2022/03/25 00:42:38;;;;;;;13.93;8.27;;;;;;;0.70;100.00;99859.75;5133442;27;20099;-69
2022/03/25 00:45:05;;;;;;;16.60;7.70;;;;;;;0.78;100.00;99885.34;5133220;27;20083;-69
2022/03/25 00:47:32;;;;;;;14.07;8.50;;;;;;;0.77;100.00;99889.94;5133304;27;20062;-70
2022/03/25 00:49:58;;;;;;;14.85;8.13;;;;;;;0.70;100.00;99898.34;5133584;28;20108;-69
2022/03/25 00:52:25;;;;;;;20.80;8.85;;;;;;;0.68;100.00;99886.22;5133202;27;20509;-70
2022/03/25 00:54:51;;;;;;;20.13;8.05;;;;;;;0.61;100.00;99896.53;5133311;28;20082;-70
2022/03/25 00:57:19;;;;;;;17.58;8.80;;;;;;;0.59;100.00;99893.28;5133324;27;20460;-70
2022/03/25 00:59:45;;;;;;;17.98;8.40;;;;;;;0.53;100.00;99900.59;5133388;27;20532;-70
2022/03/25 01:02:12;;;;;;;14.90;8.70;;;;;;;0.48;100.00;99908.75;5133144;27;20502;-69
2022/03/25 01:04:38;;;;;;;16.08;8.85;;;;;;;0.48;100.00;99922.25;5133232;28;20172;-69
2022/03/25 01:07:05;;;;;;;16.48;8.25;;;;;;;0.38;100.00;99923.09;5132619;28;20066;-70
2022/03/25 01:09:31;;;;;;;17.27;8.48;;;;;;;0.35;100.00;99933.66;5132836;28;20051;-70
2022/03/25 01:11:58;;;;;;;20.17;9.20;;;;;;;0.37;100.00;99945.78;5132911;27;20050;-70
2022/03/25 01:14:25;;;;;;;20.63;8.95;;;;;;;0.33;100.00;99952.78;5132809;28;20100;-70
2022/03/25 01:16:52;;;;;;;17.40;8.77;;;;;;;0.34;100.00;99969.81;5132847;27;20048;-70
2022/03/25 01:19:19;;;;;;;15.15;8.48;;;;;;;0.32;100.00;99977.34;5132852;27;20083;-69
2022/03/25 01:21:46;;;;;;;18.90;9.00;;;;;;;0.30;100.00;99976.81;5132984;27;20051;-69
2022/03/25 01:24:13;;;;;;;14.18;8.35;;;;;;;0.23;100.00;99983.34;5132950;27;20047;-69
2022/03/25 01:26:39;;;;;;;25.27;10.48;;;;;;;0.15;100.00;99988.47;5132705;27;20050;-70
2022/03/25 01:29:06;;;;;;;25.90;12.00;;;;;;;0.18;100.00;100002.22;5132849;27;20047;-70
2022/03/25 01:31:34;;;;;;;27.42;12.30;;;;;;;0.16;100.00;99998.16;5132687;28;20148;-70
2022/03/25 01:34:00;;;;;;;29.30;12.40;;;;;;;0.18;100.00;100014.91;5132851;27;20051;-69
2022/03/25 01:36:27;;;;;;;17.88;9.95;;;;;;;0.14;100.00;100022.72;5132545;27;20104;-69
2022/03/25 01:38:53;;;;;;;19.15;9.50;;;;;;;0.06;100.00;100014.38;5132673;27;20043;-69
2022/03/25 01:41:20;;;;;;;19.33;9.23;;;;;;;0.03;100.00;100026.53;5132237;28;20055;-70
2022/03/25 01:43:53;;;;;;;22.55;9.98;;;;;;;0.04;100.00;100036.25;5132079;27;20055;-70
2022/03/25 01:46:19;;;;;;;17.70;8.25;;;;;;;0.01;100.00;100047.56;5131996;28;20494;-70
2022/03/25 01:48:46;;;;;;;18.30;9.23;;;;;;;-0.02;100.00;100046.22;5132436;28;20509;-70
2022/03/25 01:51:15;;;;;;;16.45;9.02;;;;;;;-0.07;100.00;100056.19;5132111;28;20096;-69
2022/03/25 01:53:41;;;;;;;15.48;8.60;;;;;;;-0.12;100.00;100064.31;5132378;27;20086;-69
2022/03/25 01:56:08;;;;;;;17.80;10.02;;;;;;;-0.18;100.00;100070.78;5132447;27;20521;-70
2022/03/25 01:58:35;;;;;;;17.23;8.82;;;;;;;-0.20;100.00;100081.84;5132261;27;20047;-69
2022/03/25 02:01:04;;;;;;;19.92;10.23;;;;;;;-0.16;100.00;100084.81;5132184;27;20055;-70
2022/03/25 02:03:31;;;;;;;16.08;9.55;;;;;;;-0.17;100.00;100097.44;5132384;28;20054;-69
2022/03/25 02:05:58;;;;;;;19.67;9.95;;;;;;;-0.13;100.00;100106.63;5131996;27;20620;-70
2022/03/25 02:08:25;;;;;;;22.98;9.38;;;;;;;-0.16;100.00;100103.66;5132178;27;20047;-69
2022/03/25 02:10:51;;;;;;;15.43;9.10;;;;;;;-0.16;100.00;100107.16;5132563;27;20051;-69
2022/03/25 02:13:17;;;;;;;19.13;9.45;;;;;;;-0.11;100.00;100111.72;5132399;27;20129;-70
2022/03/25 02:15:47;;;;;;;21.52;10.00;;;;;;;-0.12;100.00;100104.75;5132433;28;20429;-69
2022/03/25 02:18:18;;;;;;;16.80;9.10;;;;;;;-0.08;100.00;100117.38;5132313;28;20082;-70
2022/03/25 02:20:45;;;;;;;19.27;9.35;;;;;;;-0.09;100.00;100107.69;5131816;28;20143;-70
2022/03/25 02:23:13;;;;;;;20.05;9.82;;;;;;;-0.08;100.00;100109.31;5132256;28;20503;-69
2022/03/25 02:25:40;;;;;;;15.32;8.80;;;;;;;0.02;100.00;100110.38;5131641;27;20057;-69
2022/03/25 02:28:07;;;;;;;19.45;9.43;;;;;;;0.02;100.00;100108.50;5131977;27;20063;-70
2022/03/25 02:30:34;;;;;;;17.85;9.15;;;;;;;0.02;100.00;100102.28;5131503;28;20047;-70
2022/03/25 02:33:02;;;;;;;14.43;9.10;;;;;;;0.03;100.00;100099.31;5131766;28;20425;-70
2022/03/25 02:35:40;;;;;;;18.85;9.15;;;;;;;0.10;100.00;100104.41;5131537;27;20051;-70
2022/03/25 02:38:07;;;;;;;16.15;9.07;;;;;;;0.14;100.00;100108.22;5131730;27;20050;-69
2022/03/25 02:40:35;;;;;;;13.55;8.90;;;;;;;0.12;100.00;100103.06;5131660;27;20082;-69
2022/03/25 02:43:01;;;;;;;15.70;8.80;;;;;;;0.13;100.00;100106.56;5131584;27;20510;-69
2022/03/25 02:45:27;;;;;;;24.83;9.52;;;;;;;0.14;100.00;100114.41;5131736;27;20047;-70
2022/03/25 02:47:54;;;;;;;16.38;8.40;;;;;;;0.12;100.00;100110.38;5131366;27;20047;-69
2022/03/25 02:50:21;;;;;;;17.23;9.23;;;;;;;0.16;100.00;100116.81;5131733;27;20146;-70
2022/03/25 02:52:47;;;;;;;18.80;8.82;;;;;;;0.16;100.00;100114.13;5131123;28;20058;-70
2022/03/25 02:55:13;;;;;;;17.17;9.85;;;;;;;0.22;100.00;100118.44;5131542;27;20159;-69
2022/03/25 02:57:41;;;;;;;16.23;9.65;;;;;;;0.28;100.00;100127.34;5131250;27;20054;-69
2022/03/25 03:00:09;;;;;;;19.95;10.20;;;;;;;0.21;100.00;100119.53;5131398;27;20089;-70
2022/03/25 03:02:35;;;;;;;16.25;10.10;;;;;;;0.25;100.00;100128.69;5131326;28;20104;-70
2022/03/25 03:05:02;;;;;;;22.73;10.10;;;;;;;0.26;100.00;100127.59;5131308;28;20054;-70
2022/03/25 03:07:28;;;;;;;19.33;9.75;;;;;;;0.30;100.00;100125.97;5130816;27;20051;-69
2022/03/25 03:09:55;;;;;;;20.02;9.30;;;;;;;0.33;100.00;100130.81;5131400;28;20043;-70
2022/03/25 03:12:22;;;;;;;19.27;9.65;;;;;;;0.32;100.00;100133.78;5131366;27;20139;-69
2022/03/25 03:14:49;;;;;;;16.80;9.50;;;;;;;0.26;100.00;100130.28;5131093;28;20053;-69
2022/03/25 03:17:15;;;;;;;19.02;10.35;;;;;;;0.26;100.00;100129.47;5130945;27;20054;-70
2022/03/25 03:19:41;;;;;;;19.35;10.30;;;;;;;0.27;100.00;100123.81;5131039;27;20096;-70
2022/03/25 03:22:08;;;;;;;18.58;9.32;;;;;;;0.28;100.00;100127.34;5131067;27;20062;-70
2022/03/25 03:24:34;;;;;;;20.83;9.52;;;;;;;0.25;100.00;100123.28;5130835;27;20099;-70
2022/03/25 03:27:00;;;;;;;20.38;9.98;;;;;;;0.31;100.00;100116.81;5130792;27;20053;-71
2022/03/25 03:29:27;;;;;;;21.55;11.05;;;;;;;0.26;100.00;100116.78;5130715;27;20055;-70
2022/03/25 03:31:54;;;;;;;22.23;11.65;;;;;;;0.21;100.00;100114.94;5130674;27;20549;-70
2022/03/25 03:34:20;;;;;;;31.23;12.45;;;;;;;0.19;100.00;100111.69;5130559;27;20043;-70
2022/03/25 03:36:47;;;;;;;29.60;13.77;;;;;;;0.15;100.00;100110.63;5130856;27;20055;-70
2022/03/25 03:39:13;;;;;;;32.00;13.85;;;;;;;0.15;100.00;100112.50;5130832;27;20517;-70
2022/03/25 03:41:39;;;;;;;359.05;113.40;;;;;;;0.14;100.00;100109.00;5130722;27;20095;-70
2022/03/25 03:44:06;;;;;;;264.25;80.57;;;;;;;0.13;100.00;100118.16;5130858;28;20047;-70
2022/03/25 03:46:33;;;;;;;91.07;29.80;;;;;;;0.14;100.00;100127.88;5130481;28;20051;-69
2022/03/25 03:49:00;;;;;;;65.07;24.33;;;;;;;0.11;100.00;100128.44;5130958;28;20054;-70
2022/03/25 03:51:26;;;;;;;74.38;26.58;;;;;;;0.18;100.00;100130.84;5130409;28;20141;-70
2022/03/25 03:53:53;;;;;;;26.95;13.68;;;;;;;0.23;100.00;100138.91;5130666;27;20090;-70
2022/03/25 03:56:19;;;;;;;31.10;13.32;;;;;;;0.25;100.00;100135.97;5130414;28;20047;-70
2022/03/25 03:58:45;;;;;;;24.55;11.35;;;;;;;0.32;100.00;100139.19;5130542;27;20089;-70
2022/03/25 04:01:12;;;;;;;26.40;12.13;;;;;;;0.29;100.00;100139.72;5130638;27;20062;-69
2022/03/25 04:03:38;;;;;;;38.05;14.35;;;;;;;0.31;100.00;100137.56;5130396;28;20077;-70
2022/03/25 04:06:05;;;;;;;35.33;16.17;;;;;;;0.38;100.00;100141.59;5130340;27;20422;-70
2022/03/25 04:08:32;;;;;;;36.50;16.15;;;;;;;0.40;100.00;100138.63;5132195;27;20054;-70
2022/03/25 04:10:58;;;;;;;31.40;13.07;;;;;;;0.44;100.00;100140.50;5134206;27;20055;-70
2022/03/25 04:13:24;;;;;;;27.95;13.35;;;;;;;0.49;100.00;100134.28;5133670;28;20073;-70
2022/03/25 04:15:51;;;;;;;21.60;10.82;;;;;;;0.56;100.00;100121.31;5133957;27;20434;-70
2022/03/25 04:18:17;;;;;;;22.38;11.00;;;;;;;0.55;100.00;100108.09;5133760;27;20051;-70
2022/03/25 04:20:43;;;;;;;22.30;11.55;;;;;;;0.61;100.00;100115.91;5134061;28;20066;-70
2022/03/25 04:23:11;;;;;;;25.70;11.35;;;;;;;0.68;100.00;100110.22;5133790;27;20411;-70
2022/03/25 04:25:37;;;;;;;33.75;11.50;;;;;;;0.70;100.00;100103.47;5134106;27;20054;-70
2022/03/25 04:28:04;;;;;;;26.95;12.30;;;;;;;0.73;100.00;100091.28;5133833;27;20152;-71
2022/03/25 04:30:32;;;;;;;27.38;12.23;;;;;;;0.80;100.00;100099.91;5134040;28;20542;-71
2022/03/25 04:32:59;;;;;;;26.73;12.70;;;;;;;0.81;100.00;100081.81;5133855;27;20107;-70
2022/03/25 04:35:26;;;;;;;48.63;18.40;;;;;;;0.87;100.00;100083.41;5133681;27;20162;-70
2022/03/25 04:37:52;;;;;;;28.20;13.45;;;;;;;0.99;100.00;100081.16;5134134;27;20052;-71
2022/03/25 04:40:21;;;;;;;32.22;14.02;;;;;;;1.27;100.00;100070.75;5133457;27;20051;-71
2022/03/25 04:42:49;;;;;;;34.22;14.00;;;;;;;1.31;100.00;100040.19;5133404;27;20426;-71
2022/03/25 04:45:16;;;;;;;65.72;24.70;;;;;;;1.88;100.00;100018.88;5133114;27;20068;-71
2022/03/25 04:47:42;;;;;;;113.97;37.22;;;;;;;2.52;100.00;99952.63;5133219;28;20042;-71
2022/03/25 04:50:09;;;;;;;66.00;23.42;;;;;;;3.30;100.00;99804.03;5135875;27;20114;-71
2022/03/25 04:52:36;;;;;;;35.22;16.02;;;;;;;3.97;100.00;99586.44;5141930;27;20047;-70
2022/03/25 04:55:03;;;;;;;35.85;16.52;;;;;;;4.58;100.00;99336.88;5130698;28;20088;-71
2022/03/25 04:57:30;;;;;;;35.97;14.65;;;;;;;5.05;100.00;99112.22;5133155;28;20047;-71
2022/03/25 04:59:56;;;;;;;26.75;13.10;;;;;;;5.44;100.00;98955.25;5133162;27;20080;-71
2022/03/25 05:02:22;;;;;;;33.38;14.73;;;;;;;5.96;100.00;98900.25;5133140;28;20055;-71
2022/03/25 05:04:49;;;;;;;41.17;14.38;;;;;;;6.29;100.00;98845.66;5133230;27;20054;-70
2022/03/25 05:07:16;;;;;;;40.58;14.90;;;;;;;6.57;100.00;98847.66;5132715;28;20047;-71
2022/03/25 05:09:42;;;;;;;33.45;16.30;;;;;;;6.80;100.00;98850.63;5133185;27;20541;-70
2022/03/25 05:12:10;;;;;;;45.78;17.65;;;;;;;7.25;100.00;98854.94;5132930;27;20051;-70
2022/03/25 05:14:37;;;;;;;47.97;19.92;;;;;;;7.52;100.00;98861.47;5133120;27;20062;-70
2022/03/25 05:17:04;;;;;;;43.90;19.38;;;;;;;7.84;100.00;98883.28;5133079;28;20418;-70
2022/03/25 05:19:30;;;;;;;41.15;18.50;;;;;;;8.16;100.00;98903.13;5133488;27;20085;-61
2022/03/25 05:21:57;;;;;;;39.38;16.95;;;;;;;8.39;100.00;98931.41;5148704;27;20126;-59
2022/03/25 05:24:23;;;;;;;42.40;17.88;;;;;;;8.70;100.00;98946.16;5153144;27;20095;-65
2022/03/25 05:26:49;;;;;;;34.17;15.07;;;;;;;8.91;100.00;98971.19;5150924;27;20050;-69
2022/03/25 05:29:15;;;;;;;37.58;15.63;;;;;;;9.30;100.00;98975.91;5133323;27;20050;-66
2022/03/25 05:31:43;;;;;;;35.83;14.65;;;;;;;9.16;100.00;99015.50;5148446;27;20554;-71
2022/03/25 05:34:09;;;;;;;35.53;14.15;;;;;;;9.43;100.00;99008.22;5153055;27;20417;-71
2022/03/25 05:36:36;;;;;;;26.38;14.57;;;;;;;9.63;100.00;99036.38;5153514;27;20208;-73
2022/03/25 05:39:04;;;;;;;27.98;15.25;;;;;;;9.92;100.00;99034.16;5142654;27;20051;-66
2022/03/25 05:41:31;;;;;;;34.88;14.20;;;;;;;10.35;100.00;99068.59;5132396;27;20047;-68
2022/03/25 05:43:57;;;;;;;33.58;17.35;;;;;;;10.69;100.00;99090.69;5132123;27;20418;-69
2022/03/25 05:46:23;;;;;;;36.03;14.85;;;;;;;10.96;100.00;99126.38;5132277;27;20054;-61
2022/03/25 05:48:50;;;;;;;26.65;15.40;;;;;;;11.12;100.00;99145.44;5137192;27;20488;-60
2022/03/25 05:51:17;;;;;;;28.05;13.18;;;;;;;11.49;100.00;99142.81;5133260;27;20055;-66
2022/03/25 05:53:44;;;;;;;35.50;17.73;;;;;;;11.69;100.00;99174.47;5143901;27;20168;-66
2022/03/25 05:56:11;;;;;;;46.22;16.92;;;;;;;11.92;100.00;99171.66;5146863;27;20494;-68
2022/03/25 05:58:38;;;;;;;30.23;14.82;;;;;;;12.15;100.00;99190.00;5152361;27;20055;-67
2022/03/25 06:01:07;;;;;;;68.35;23.33;;;;;;;12.51;100.00;99190.41;5141644;27;20051;-68
2022/03/25 06:03:34;;;;;;;47.50;19.30;;;;;;;12.84;100.00;99212.34;5137663;27;20054;-67
2022/03/25 06:06:02;;;;;;;241.43;73.80;;;;;;;13.17;100.00;99227.19;5152344;27;20508;-68
2022/03/25 06:08:28;;;;;;;133.57;42.10;;;;;;;13.44;100.00;99247.09;5152137;27;20050;-66
2022/03/25 06:10:55;;;;;;;43.85;19.73;;;;;;;13.77;100.00;99267.41;5152273;27;20069;-65
2022/03/25 06:13:22;;;;;;;21.73;12.77;;;;;;;14.10;100.00;99266.41;5148177;27;20051;-66
2022/03/25 06:15:48;;;;;;;25.20;13.30;;;;;;;14.26;100.00;99293.66;5131086;27;20509;-62
2022/03/25 06:18:14;;;;;;;20.13;11.88;;;;;;;14.30;100.00;99298.03;5131354;28;20126;-61
2022/03/25 06:20:41;;;;;;;20.73;12.65;;;;;;;14.36;100.00;99303.94;5136983;27;20448;-62
2022/03/25 06:23:08;;;;;;;50.10;18.73;;;;;;;14.64;100.00;99306.06;5152086;27;20047;-61
2022/03/25 06:25:34;;;;;;;26.02;14.15;;;;;;;15.13;100.00;99318.44;5152147;27;20054;-60
2022/03/25 06:28:04;;;;;;;50.58;20.20;;;;;;;15.24;100.00;99338.56;5152149;27;20046;-65
2022/03/25 06:30:34;;;;;;;26.17;13.52;;;;;;;15.30;100.00;99347.28;5148184;27;20053;-63
2022/03/25 06:33:01;;;;;;;24.38;13.82;;;;;;;15.56;100.00;99346.13;5133593;27;20608;-60
2022/03/25 06:35:27;;;;;;;20.52;13.60;;;;;;;15.70;100.00;99351.69;5140403;27;20050;-62
2022/03/25 06:37:55;;;;;;;28.10;14.38;;;;;;;15.76;100.00;99347.34;5152433;27;20078;-61
2022/03/25 06:40:23;;;;;;;25.27;14.40;;;;;;;15.93;100.00;99351.28;5150496;27;20046;-61
2022/03/25 06:42:50;;;;;;;29.90;14.50;;;;;;;16.11;100.00;99364.28;5131601;27;20433;-62
2022/03/25 06:45:18;;;;;;;22.90;13.20;;;;;;;16.31;100.00;99365.44;5131510;28;20603;-65
2022/03/25 06:47:45;;;;;;;22.17;13.45;;;;;;;16.51;100.00;99365.78;5131192;27;20099;-67
2022/03/25 06:50:13;;;;;;;21.95;13.27;;;;;;;16.66;100.00;99367.31;5131310;27;20043;-65
2022/03/25 06:52:40;;;;;;;19.70;13.13;;;;;;;16.90;99.21;99376.75;5150412;27;20058;-63
2022/03/25 06:55:08;;;;;;;23.42;14.07;;;;;;;16.80;98.30;99380.34;5131516;27;20046;-64
2022/03/25 06:57:35;;;;;;;17.88;12.20;;;;;;;16.96;97.48;99379.06;5132647;27;20047;-60
2022/03/25 07:00:04;;;;;;;26.85;14.20;;;;;;;17.04;97.23;99384.19;5141349;27;20072;-62
2022/03/25 07:02:31;;;;;;;24.50;13.93;;;;;;;17.14;95.03;99390.88;5131450;27;20123;-65
2022/03/25 07:04:58;;;;;;;24.85;13.10;;;;;;;17.06;95.49;99403.97;5150954;27;20043;-65
2022/03/25 07:07:26;;;;;;;22.52;11.65;;;;;;;17.40;94.83;99400.63;5142279;27;20129;-62
2022/03/25 07:09:54;;;;;;;63.58;24.13;;;;;;;18.12;95.69;99381.47;5141903;27;20144;-63
2022/03/25 07:12:21;;;;;;;14.77;11.75;;;;;;;18.24;89.12;99414.28;5136323;27;20058;-62
2022/03/25 07:14:48;;;;;;;18.83;11.45;;;;;;;18.37;89.34;99409.00;5131926;27;20055;-62
2022/03/25 07:17:14;;;;;;;17.48;11.60;;;;;;;18.33;87.78;99414.59;5130525;28;20047;-62
2022/03/25 07:19:40;;;;;;;19.17;12.52;;;;;;;17.96;88.60;99408.97;5130718;28;20051;-62
2022/03/25 07:22:06;;;;;;;23.73;13.18;;;;;;;17.94;90.29;99406.59;5128681;28;20082;-62
2022/03/25 07:24:33;;;;;;;19.40;12.15;;;;;;;18.10;89.66;99397.75;5139192;27;20541;-62
2022/03/25 07:26:59;;;;;;;19.00;13.32;;;;;;;17.93;88.86;99412.59;5151396;27;20043;-62
2022/03/25 07:29:25;;;;;;;16.90;11.98;;;;;;;17.87;89.71;99403.91;5146805;27;20098;-62
2022/03/25 07:31:53;;;;;;;20.65;13.80;;;;;;;18.09;88.17;99399.75;5139008;27;20198;-62
2022/03/25 07:34:19;;;;;;;26.88;13.98;;;;;;;18.09;87.37;99410.84;5148030;27;20135;-62
2022/03/25 07:36:46;;;;;;;29.17;14.25;;;;;;;18.23;88.16;99407.16;5141652;27;20054;-62
2022/03/25 07:39:12;;;;;;;18.23;12.82;;;;;;;18.29;86.86;99416.63;5150937;27;20416;-62
2022/03/25 07:41:38;;;;;;;27.70;14.43;;;;;;;18.29;87.25;99413.03;5150704;27;20145;-62
2022/03/25 07:44:05;;;;;;;25.42;15.15;;;;;;;18.56;85.17;99416.75;5145655;27;20074;-62
2022/03/25 07:46:31;;;;;;;28.55;15.55;;;;;;;18.83;84.54;99413.31;5130519;27;20896;-62
2022/03/25 07:48:58;;;;;;;24.42;12.75;;;;;;;19.11;82.76;99419.72;5134554;27;20051;-62
2022/03/25 07:51:25;;;;;;;19.60;12.48;;;;;;;19.10;82.27;99421.72;5140835;27;20043;-61
2022/03/25 07:53:51;;;;;;;16.48;12.38;;;;;;;19.24;81.13;99429.06;5140571;27;20194;-62
2022/03/25 07:56:17;;;;;;;66.30;42.38;;;;;;;19.40;80.58;99428.47;5134747;27;20558;-62
2022/03/25 07:58:43;;;;;;;146.10;92.47;;;;;;;19.42;80.57;99429.59;5141560;27;20135;-62
2022/03/25 08:01:10;;;;;;;28.20;19.08;;;;;;;19.45;80.30;99431.53;5130161;28;20521;-62
2022/03/25 08:03:36;;;;;;;24.48;14.25;;;;;;;19.58;79.93;99434.53;5131409;27;20425;-62
2022/03/25 08:06:03;;;;;;;25.90;15.23;;;;;;;19.68;78.30;99438.41;5148308;27;20046;-62
2022/03/25 08:08:30;;;;;;;20.27;13.48;;;;;;;19.77;79.46;99435.13;5150197;27;20051;-62
2022/03/25 08:10:56;;;;;;;20.17;13.25;;;;;;;20.00;77.75;99437.16;5150742;27;20118;-62
2022/03/25 08:13:23;;;;;;;22.35;13.15;;;;;;;19.78;77.22;99439.47;5150328;27;20113;-62
2022/03/25 08:15:50;;;;;;;31.63;14.68;;;;;;;19.86;77.39;99436.16;5150990;27;20050;-62
2022/03/25 08:18:16;;;;;;;20.85;12.90;;;;;;;19.90;78.33;99430.53;5150471;27;20043;-62
2022/03/25 08:20:44;;;;;;;20.75;13.10;;;;;;;19.99;77.36;99436.34;5150723;27;20093;-63
2022/03/25 08:23:13;;;;;;;18.40;13.00;;;;;;;20.01;77.76;99431.16;5150409;27;20525;-63
2022/03/25 08:28:24;;;;;;;24.88;13.20;;;;;;;19.73;78.40;99424.03;5150134;27;20471;-61
2022/03/25 08:30:51;;;;;;;28.90;13.93;;;;;;;19.55;79.79;99415.91;5150278;27;20597;-62
2022/03/25 08:33:17;;;;;;;20.30;12.25;;;;;;;19.64;80.46;99416.22;5150143;27;20051;-61
2022/03/25 08:35:44;;;;;;;25.98;13.20;;;;;;;19.72;80.42;99414.09;5130223;27;20054;-62
2022/03/25 08:38:13;;;;;;;23.92;14.05;;;;;;;19.65;80.76;99409.44;5129374;27;20574;-62
2022/03/25 08:40:41;;;;;;;26.85;14.90;;;;;;;19.42;80.65;99404.56;5129876;28;20116;-62
2022/03/25 08:43:07;;;;;;;19.50;13.13;;;;;;;19.67;80.07;99409.03;5130711;27;20055;-62
2022/03/25 08:45:34;;;;;;;25.02;14.27;;;;;;;19.74;80.51;99404.13;5129518;28;20506;-62
2022/03/25 08:48:00;;;;;;;23.15;13.05;;;;;;;19.76;79.86;99400.94;5129574;28;20498;-62
2022/03/25 08:50:27;;;;;;;24.77;12.80;;;;;;;19.92;79.87;99403.06;5129374;28;20129;-62
2022/03/25 08:52:53;;;;;;;23.15;12.98;;;;;;;20.12;78.73;99405.91;5129374;28;20516;-62
2022/03/25 08:55:21;;;;;;;29.00;13.10;;;;;;;20.17;79.78;99399.88;5132691;27;20085;-62
2022/03/25 08:57:48;;;;;;;22.42;12.35;;;;;;;20.27;78.51;99409.25;5132998;27;20047;-62
2022/03/25 09:00:17;;;;;;;20.45;11.95;;;;;;;20.27;79.07;99396.13;5132906;27;20044;-62
2022/03/25 09:02:45;;;;;;;30.70;12.52;;;;;;;20.05;79.38;99397.69;5133064;27;20050;-62
2022/03/25 09:05:12;;;;;;;14.75;11.55;;;;;;;20.04;80.18;99391.34;5132824;27;20490;-62
2022/03/25 09:07:39;;;;;;;26.73;12.30;;;;;;;20.02;79.76;99390.97;5132232;28;20055;-63
2022/03/25 09:10:08;;;;;;;22.95;11.23;;;;;;;19.99;81.26;99383.47;5132397;27;20047;-62
2022/03/25 09:12:35;;;;;;;13.93;10.52;;;;;;;20.05;79.73;99384.56;5133065;28;20104;-65
2022/03/25 09:15:03;;;;;;;19.23;10.80;;;;;;;19.73;80.16;99388.66;5133262;28;20058;-64
2022/03/25 09:17:29;;;;;;;36.22;11.88;;;;;;;19.69;80.40;99385.16;5132690;28;20541;-61
2022/03/25 09:19:56;;;;;;;19.00;10.00;;;;;;;19.59;82.51;99379.72;5133031;27;20047;-66
2022/03/25 09:22:22;;;;;;;13.95;9.30;;;;;;;19.59;81.64;99374.94;5132874;28;20506;-68
2022/03/25 09:24:48;;;;;;;11.48;9.43;;;;;;;19.69;82.05;99371.25;5133003;27;20043;-67
2022/03/25 09:27:15;;;;;;;12.93;8.32;;;;;;;19.43;81.90;99367.25;5132519;27;20047;-65
2022/03/25 09:29:43;;;;;;;13.80;8.77;;;;;;;19.30;83.26;99368.25;5132729;28;20134;-64
2022/03/25 09:32:09;;;;;;;13.05;8.57;;;;;;;19.27;83.17;99359.53;5132573;28;20422;-61
2022/03/25 09:37:25;;;;;;;14.70;8.90;;;;;;;19.40;84.38;99348.63;5116563;28;20130;-62
2022/03/25 09:39:52;;;;;;;13.02;8.85;;;;;;;19.28;84.78;99351.97;5132133;27;20051;-61
2022/03/25 09:42:19;;;;;;;11.40;7.97;;;;;;;19.26;86.35;99334.94;5132435;27;20047;-62
2022/03/25 09:44:46;;;;;;;16.48;8.40;;;;;;;19.41;85.72;99341.06;5132220;27;20055;-62
2022/03/25 09:47:14;;;;;;;15.10;7.13;;;;;;;19.48;87.21;99330.63;5132487;28;20047;-62
2022/03/25 09:49:41;;;;;;;13.32;8.07;;;;;;;19.35;88.36;99320.50;5132100;27;20525;-61
2022/03/25 09:52:07;;;;;;;19.13;9.80;;;;;;;19.36;86.93;99322.06;5131816;28;20043;-62
2022/03/25 09:54:35;;;;;;;22.65;7.60;;;;;;;19.19;87.69;99332.25;5132123;28;20496;-63
2022/03/25 09:57:01;;;;;;;17.70;7.60;;;;;;;19.07;88.69;99322.50;5133155;27;20475;-62
2022/03/25 09:59:27;;;;;;;19.92;8.10;;;;;;;19.10;89.48;99327.22;5132510;27;20055;-63
2022/03/25 10:01:54;;;;;;;9.82;8.00;;;;;;;19.23;89.31;99330.22;5132511;28;20095;-63
2022/03/25 10:04:40;;;;;;;33.17;9.32;;;;;;;19.31;90.04;99317.00;5132358;28;20505;-62
2022/03/25 10:07:18;;;;;;;19.88;11.18;;;;;;;19.20;88.71;99331.06;5140310;27;20119;-62
2022/03/25 10:09:46;;;;;;;13.30;9.15;;;;;;;18.94;90.54;99325.06;5152658;27;20076;-61
2022/03/25 10:12:23;;;;;;;17.75;8.98;;;;;;;18.82;91.54;99322.81;5143732;27;20046;-61
2022/03/25 10:14:51;;;;;;;13.25;8.30;;;;;;;19.01;93.14;99310.28;5145080;27;20054;-62
2022/03/25 10:17:19;;;;;;;16.30;8.40;;;;;;;18.87;95.46;99307.72;5137050;27;20081;-64
2022/03/25 10:19:50;;;;;;;19.83;7.95;;;;;;;18.66;97.38;99287.31;5131716;28;20053;-65
2022/03/25 10:22:17;;;;;;;11.82;8.43;;;;;;;18.60;99.21;99286.22;5132235;27;20124;-63
2022/03/25 10:24:45;;;;;;;14.23;8.55;;;;;;;18.55;99.30;99279.09;5132096;28;20111;-62
2022/03/25 10:27:13;;;;;;;16.75;8.27;;;;;;;18.61;99.54;99282.22;5141274;27;20046;-60
2022/03/25 10:29:39;;;;;;;14.65;8.32;;;;;;;18.56;98.99;99277.94;5152419;27;20048;-61
2022/03/25 10:32:07;;;;;;;22.92;7.75;;;;;;;18.49;100.00;99266.09;5142982;27;20142;-59
2022/03/25 10:34:34;;;;;;;18.58;8.93;;;;;;;18.68;99.83;99279.34;5143032;27;20062;-60
2022/03/25 10:37:01;;;;;;;13.52;8.20;;;;;;;18.72;98.36;99280.09;5138305;27;20054;-68
2022/03/25 10:39:28;;;;;;;15.40;8.50;;;;;;;18.79;100.00;99268.94;5135074;27;20505;-62
2022/03/25 10:41:58;;;;;;;14.63;8.07;;;;;;;18.71;99.56;99263.84;5152405;27;20095;-63
2022/03/25 10:44:34;;;;;;;13.68;8.57;;;;;;;18.63;100.00;99254.06;5151944;27;20051;-63
2022/03/25 10:47:00;;;;;;;11.27;7.82;;;;;;;18.56;100.00;99246.59;5144691;27;20046;-63
2022/03/25 10:49:38;;;;;;;15.57;8.35;;;;;;;18.72;100.00;99252.34;5148849;27;20054;-62
2022/03/25 10:52:06;;;;;;;19.25;9.77;;;;;;;18.69;100.00;99239.25;5147038;27;20050;-65
2022/03/25 10:54:32;;;;;;;17.00;8.32;;;;;;;18.78;100.00;99225.66;5151733;27;20050;-61
2022/03/25 10:56:59;;;;;;;11.18;7.22;;;;;;;18.88;100.00;99232.28;5149411;27;20053;-61
2022/03/25 10:59:28;;;;;;;12.57;7.13;;;;;;;18.84;100.00;99219.66;5153779;27;20050;-63
2022/03/25 11:01:56;;;;;;;11.90;6.78;;;;;;;18.70;100.00;99220.63;5155177;27;20051;-63
2022/03/25 11:04:23;;;;;;;15.00;7.30;;;;;;;18.65;100.00;99212.75;5146101;27;20409;-64
2022/03/25 11:06:50;;;;;;;9.20;6.60;;;;;;;18.62;100.00;99203.25;5132818;27;20082;-63
2022/03/25 11:09:18;;;;;;;11.23;7.65;;;;;;;18.46;100.00;99215.00;5130064;28;20051;-64
2022/03/25 11:11:46;;;;;;;13.45;7.15;;;;;;;18.39;100.00;99203.19;5131827;27;20099;-64
2022/03/25 11:14:13;;;;;;;14.98;7.40;;;;;;;18.39;100.00;99187.31;5130948;27;20051;-62
2022/03/25 11:16:42;;;;;;;15.75;7.20;;;;;;;18.32;100.00;99192.97;5129755;27;20051;-61
2022/03/25 11:19:09;;;;;;;54.00;8.82;;;;;;;18.01;100.00;99192.16;5131337;27;20138;-67
2022/03/25 11:21:40;;;;;;;16.75;7.32;;;;;;;17.78;100.00;99176.97;5135688;27;20597;-63